Search METAR Data

METAR Data for ENZV:

ENZV 212020Z 19004KT CAVOK 15/11 Q1011